Time;durP1;ratioP1;P1;durP2;ratioP2;P2;SDS_P1;SDS_P2;PMS_P1;PMS_P2;Temp;Humidity;BMP_temperature;BMP_pressure;BME280_temperature;BME280_humidity;BME280_pressure;Samples;Min_cycle;Max_cycle;Signal;HPM_P1;HPM_P2
2024/03/23 00:00:36;;;;;;;13.60;6.80;;;;;;;;;;4968287;28;20449;-61
2024/03/23 00:03:02;;;;;;;13.65;6.80;;;;;;;;;;4972428;28;20015;-62
2024/03/23 00:05:28;;;;;;;12.20;6.25;;;;;;;;;;4971852;28;20031;-62
2024/03/23 00:07:54;;;;;;;11.43;6.20;;;;;;;;;;4954927;28;20020;-61
2024/03/23 00:10:23;;;;;;;10.73;6.00;;;;;;;;;;4965330;28;20042;-62
2024/03/23 00:12:49;;;;;;;12.00;6.10;;;;;;;;;;4974419;28;20030;-63
2024/03/23 00:15:14;;;;;;;13.10;6.18;;;;;;;;;;4982359;28;20027;-61
2024/03/23 00:17:40;;;;;;;11.32;5.95;;;;;;;;;;4961895;28;20600;-61
2024/03/23 00:20:06;;;;;;;11.50;5.93;;;;;;;;;;4961548;28;20471;-61
2024/03/23 00:22:32;;;;;;;12.77;6.22;;;;;;;;;;4971734;28;20031;-61
2024/03/23 00:24:57;;;;;;;11.65;6.20;;;;;;;;;;4971464;28;20030;-61
2024/03/23 00:27:23;;;;;;;11.23;5.82;;;;;;;;;;4975310;28;20043;-60
2024/03/23 00:29:49;;;;;;;11.80;5.78;;;;;;;;;;4966715;28;20501;-60
2024/03/23 00:32:14;;;;;;;13.77;6.28;;;;;;;;;;4982441;28;20026;-62
2024/03/23 00:34:40;;;;;;;12.32;6.80;;;;;;;;;;4988380;28;20027;-62
2024/03/23 00:37:06;;;;;;;11.75;6.10;;;;;;;;;;4972447;28;20035;-60
2024/03/23 00:39:31;;;;;;;12.15;6.82;;;;;;;;;;4974749;28;20471;-61
2024/03/23 00:41:57;;;;;;;9.85;5.85;;;;;;;;;;4978738;28;20035;-61
2024/03/23 00:44:23;;;;;;;11.40;6.53;;;;;;;;;;4976653;28;20027;-61
2024/03/23 00:46:48;;;;;;;11.88;6.45;;;;;;;;;;4986287;28;20042;-60
2024/03/23 00:49:15;;;;;;;12.85;6.70;;;;;;;;;;4973081;28;20031;-62
2024/03/23 00:51:40;;;;;;;11.55;6.10;;;;;;;;;;4976544;28;20022;-63
2024/03/23 00:54:05;;;;;;;11.55;6.13;;;;;;;;;;4975983;28;20398;-60
2024/03/23 00:56:30;;;;;;;11.87;6.37;;;;;;;;;;4976432;28;20124;-62
2024/03/23 00:58:56;;;;;;;11.90;6.20;;;;;;;;;;4959791;28;20031;-61
2024/03/23 01:01:21;;;;;;;11.27;6.28;;;;;;;;;;4975194;28;20022;-59
2024/03/23 01:03:46;;;;;;;13.13;6.57;;;;;;;;;;4985645;28;20096;-62
2024/03/23 01:06:11;;;;;;;11.77;6.50;;;;;;;;;;4955806;28;20509;-63
2024/03/23 01:08:36;;;;;;;12.15;6.60;;;;;;;;;;4951976;28;20035;-62
2024/03/23 01:11:02;;;;;;;10.07;5.82;;;;;;;;;;4952189;28;20023;-62
2024/03/23 01:13:27;;;;;;;11.90;6.32;;;;;;;;;;4969059;28;20043;-62
2024/03/23 01:15:54;;;;;;;13.20;6.47;;;;;;;;;;4970684;28;20514;-62
2024/03/23 01:18:19;;;;;;;13.75;6.72;;;;;;;;;;4975681;28;20026;-61
2024/03/23 01:20:44;;;;;;;11.75;6.38;;;;;;;;;;4973607;28;20041;-61
2024/03/23 01:23:10;;;;;;;13.68;6.75;;;;;;;;;;4955373;28;20074;-61
2024/03/23 01:25:35;;;;;;;13.18;6.85;;;;;;;;;;4973667;28;20024;-61
2024/03/23 01:28:02;;;;;;;11.60;6.22;;;;;;;;;;4964368;28;20020;-61
2024/03/23 01:30:27;;;;;;;13.90;7.07;;;;;;;;;;4951577;28;20023;-61
2024/03/23 01:32:52;;;;;;;13.15;7.25;;;;;;;;;;4959628;28;20026;-61
2024/03/23 01:35:17;;;;;;;12.80;6.83;;;;;;;;;;4973862;28;20034;-62
2024/03/23 01:37:42;;;;;;;13.57;7.40;;;;;;;;;;4976381;28;20026;-62
2024/03/23 01:40:08;;;;;;;14.95;7.20;;;;;;;;;;4970446;28;20030;-62
2024/03/23 01:42:33;;;;;;;16.10;8.95;;;;;;;;;;4964101;28;20503;-62
2024/03/23 01:44:58;;;;;;;15.77;7.90;;;;;;;;;;4959017;28;20110;-63
2024/03/23 01:47:23;;;;;;;17.37;8.37;;;;;;;;;;4964337;28;20395;-61
2024/03/23 01:49:48;;;;;;;14.90;7.83;;;;;;;;;;4953474;28;20015;-60
2024/03/23 01:52:13;;;;;;;16.70;8.70;;;;;;;;;;4967467;28;20023;-61
2024/03/23 01:54:39;;;;;;;17.77;8.73;;;;;;;;;;4987433;28;20035;-61
2024/03/23 01:57:04;;;;;;;19.73;8.20;;;;;;;;;;4975602;28;20483;-58
2024/03/23 01:59:29;;;;;;;17.00;8.40;;;;;;;;;;4977821;28;20015;-61
2024/03/23 02:01:54;;;;;;;16.90;8.33;;;;;;;;;;4949806;28;20024;-62
2024/03/23 02:04:20;;;;;;;17.90;9.18;;;;;;;;;;4951163;28;20024;-61
2024/03/23 02:06:45;;;;;;;17.02;9.00;;;;;;;;;;4949953;28;20026;-62
2024/03/23 02:09:10;;;;;;;19.83;10.30;;;;;;;;;;4950984;28;20061;-61
2024/03/23 02:11:35;;;;;;;16.73;9.40;;;;;;;;;;4962172;28;20027;-63
2024/03/23 02:14:00;;;;;;;16.95;9.20;;;;;;;;;;4991754;28;20019;-61
2024/03/23 02:16:25;;;;;;;18.13;9.02;;;;;;;;;;4961829;28;20027;-61
2024/03/23 02:18:50;;;;;;;18.45;9.27;;;;;;;;;;4962747;28;20031;-60
2024/03/23 02:21:16;;;;;;;19.00;9.37;;;;;;;;;;4970704;28;20044;-62
2024/03/23 02:23:42;;;;;;;16.65;9.13;;;;;;;;;;4967924;28;20035;-61
2024/03/23 02:26:09;;;;;;;18.90;9.63;;;;;;;;;;4975023;28;20039;-61
2024/03/23 02:28:34;;;;;;;17.13;9.45;;;;;;;;;;4991807;28;20029;-61
2024/03/23 02:31:01;;;;;;;18.77;10.02;;;;;;;;;;4960902;28;20031;-60
2024/03/23 02:33:26;;;;;;;18.20;9.45;;;;;;;;;;4959941;28;20035;-61
2024/03/23 02:35:55;;;;;;;19.13;9.68;;;;;;;;;;4969767;28;20054;-62
2024/03/23 02:38:21;;;;;;;18.17;10.10;;;;;;;;;;4970693;28;20041;-62
2024/03/23 02:40:46;;;;;;;20.23;10.15;;;;;;;;;;4969272;28;20544;-62
2024/03/23 02:43:13;;;;;;;17.57;9.50;;;;;;;;;;4972552;28;20034;-61
2024/03/23 02:45:38;;;;;;;22.17;11.07;;;;;;;;;;4979134;28;20035;-60
2024/03/23 02:48:04;;;;;;;19.20;9.98;;;;;;;;;;4971070;28;20493;-60
2024/03/23 02:50:31;;;;;;;18.38;10.18;;;;;;;;;;4969183;28;20053;-60
2024/03/23 02:52:56;;;;;;;19.45;10.20;;;;;;;;;;4970080;28;20026;-62
2024/03/23 02:55:21;;;;;;;18.47;10.30;;;;;;;;;;4967387;28;20068;-60
2024/03/23 02:57:46;;;;;;;18.07;10.57;;;;;;;;;;4985179;28;20054;-60
2024/03/23 03:00:12;;;;;;;18.77;9.27;;;;;;;;;;5048658;28;20080;-59
2024/03/23 03:02:37;;;;;;;21.40;10.35;;;;;;;;;;4953274;28;20031;-62
2024/03/23 03:05:04;;;;;;;19.70;10.33;;;;;;;;;;4956574;28;20027;-62
2024/03/23 03:07:30;;;;;;;16.05;9.13;;;;;;;;;;4956165;28;20541;-61
2024/03/23 03:09:55;;;;;;;18.27;9.30;;;;;;;;;;4958749;28;20030;-61
2024/03/23 03:12:20;;;;;;;19.37;9.47;;;;;;;;;;4980748;28;20018;-60
2024/03/23 03:14:45;;;;;;;21.23;11.32;;;;;;;;;;4988776;28;20035;-60
2024/03/23 03:17:10;;;;;;;20.67;10.65;;;;;;;;;;4989537;28;20022;-61
2024/03/23 03:19:35;;;;;;;22.25;11.02;;;;;;;;;;4988759;28;20112;-61
2024/03/23 03:22:01;;;;;;;22.60;10.87;;;;;;;;;;5016225;28;20602;-60
2024/03/23 03:24:26;;;;;;;20.27;10.27;;;;;;;;;;5026917;28;20050;-62
2024/03/23 03:26:51;;;;;;;19.85;10.75;;;;;;;;;;4976927;28;20478;-60
2024/03/23 03:29:16;;;;;;;24.60;10.43;;;;;;;;;;4969131;28;20144;-62
2024/03/23 03:31:42;;;;;;;20.92;10.98;;;;;;;;;;4972622;28;20019;-61
2024/03/23 03:34:07;;;;;;;19.52;9.70;;;;;;;;;;4972711;28;20386;-62
2024/03/23 03:36:32;;;;;;;17.87;9.50;;;;;;;;;;5073719;28;20021;-61
2024/03/23 03:38:58;;;;;;;16.70;9.15;;;;;;;;;;5018558;28;20457;-62
2024/03/23 03:41:23;;;;;;;19.80;10.60;;;;;;;;;;4982109;28;20087;-62
2024/03/23 03:43:48;;;;;;;18.63;9.35;;;;;;;;;;4972039;28;20030;-62
2024/03/23 03:46:13;;;;;;;18.83;9.65;;;;;;;;;;4971848;28;20035;-62
2024/03/23 03:48:38;;;;;;;21.23;10.35;;;;;;;;;;4971814;28;20117;-61
2024/03/23 03:51:04;;;;;;;18.20;9.93;;;;;;;;;;4972705;28;20019;-61
2024/03/23 03:53:30;;;;;;;16.42;9.30;;;;;;;;;;4979041;28;20453;-60
2024/03/23 03:55:55;;;;;;;18.42;9.45;;;;;;;;;;4978500;28;20044;-61
2024/03/23 03:58:21;;;;;;;19.67;10.93;;;;;;;;;;4972847;28;20015;-62
2024/03/23 04:00:47;;;;;;;21.08;10.63;;;;;;;;;;4972653;28;20049;-62
2024/03/23 04:03:12;;;;;;;18.23;9.30;;;;;;;;;;4972122;28;20032;-61
2024/03/23 04:05:37;;;;;;;18.10;9.75;;;;;;;;;;4970575;28;20034;-62
2024/03/23 04:08:03;;;;;;;19.57;11.10;;;;;;;;;;4978868;28;20015;-60
2024/03/23 04:10:28;;;;;;;17.30;9.50;;;;;;;;;;4990196;28;20459;-61
2024/03/23 04:12:54;;;;;;;17.83;9.45;;;;;;;;;;5001452;28;20106;-60
2024/03/23 04:15:19;;;;;;;19.08;10.02;;;;;;;;;;5085607;28;20099;-62
2024/03/23 04:17:44;;;;;;;19.90;10.80;;;;;;;;;;5084627;28;20017;-62
2024/03/23 04:20:11;;;;;;;19.00;9.80;;;;;;;;;;5078371;28;20157;-61
2024/03/23 04:22:39;;;;;;;20.40;10.90;;;;;;;;;;4991628;28;20620;-62
2024/03/23 04:25:06;;;;;;;20.40;10.52;;;;;;;;;;5007267;28;20031;-62
2024/03/23 04:27:34;;;;;;;20.63;11.18;;;;;;;;;;5007700;28;20060;-63
2024/03/23 04:30:04;;;;;;;21.17;10.70;;;;;;;;;;5005225;28;20121;-60
2024/03/23 04:32:29;;;;;;;20.75;10.70;;;;;;;;;;4996650;28;20454;-62
2024/03/23 04:34:54;;;;;;;20.90;10.50;;;;;;;;;;4984671;28;20084;-61
2024/03/23 04:37:20;;;;;;;29.37;13.83;;;;;;;;;;4979514;28;20482;-61
2024/03/23 04:39:45;;;;;;;22.10;11.73;;;;;;;;;;5010522;28;20135;-61
2024/03/23 04:42:11;;;;;;;27.42;14.25;;;;;;;;;;4975106;28;20074;-60
2024/03/23 04:44:37;;;;;;;29.80;15.00;;;;;;;;;;4955302;29;20494;-60
2024/03/23 04:47:02;;;;;;;26.80;13.97;;;;;;;;;;4955465;28;20031;-61
2024/03/23 04:49:27;;;;;;;24.65;11.68;;;;;;;;;;4976960;28;20019;-62
2024/03/23 04:51:52;;;;;;;24.65;11.73;;;;;;;;;;4985977;28;20037;-61
2024/03/23 04:54:18;;;;;;;24.90;12.20;;;;;;;;;;4991400;28;20030;-61
2024/03/23 04:56:43;;;;;;;21.83;11.80;;;;;;;;;;4990033;28;20014;-62
2024/03/23 04:59:08;;;;;;;22.27;11.77;;;;;;;;;;4991608;28;20024;-62
2024/03/23 05:01:34;;;;;;;26.35;12.45;;;;;;;;;;4982830;28;20853;-63
2024/03/23 05:03:59;;;;;;;26.77;13.13;;;;;;;;;;4963570;28;20018;-62
2024/03/23 05:06:25;;;;;;;22.17;11.23;;;;;;;;;;4972489;28;20501;-61
2024/03/23 05:08:50;;;;;;;28.67;12.85;;;;;;;;;;4989555;28;20041;-61
2024/03/23 05:11:15;;;;;;;23.37;12.40;;;;;;;;;;5020455;28;20498;-62
2024/03/23 05:13:41;;;;;;;24.73;12.30;;;;;;;;;;4986251;28;20445;-62
2024/03/23 05:16:06;;;;;;;23.65;11.52;;;;;;;;;;4987278;28;20093;-61
2024/03/23 05:18:31;;;;;;;22.65;11.63;;;;;;;;;;4986643;28;20031;-60
2024/03/23 05:21:00;;;;;;;25.48;12.13;;;;;;;;;;4989359;28;20110;-61
2024/03/23 05:23:25;;;;;;;20.33;9.98;;;;;;;;;;4982208;28;20026;-62
2024/03/23 05:25:51;;;;;;;18.83;9.50;;;;;;;;;;4980667;28;20019;-61
2024/03/23 05:28:17;;;;;;;19.33;9.35;;;;;;;;;;5065701;28;20105;-63
2024/03/23 05:30:43;;;;;;;18.20;8.88;;;;;;;;;;5077847;28;20021;-61
2024/03/23 05:33:08;;;;;;;21.95;10.75;;;;;;;;;;4982757;28;20033;-62
2024/03/23 05:35:33;;;;;;;23.77;12.75;;;;;;;;;;4982849;28;20026;-61
2024/03/23 05:37:58;;;;;;;18.58;9.55;;;;;;;;;;4991077;28;20019;-61
2024/03/23 05:40:25;;;;;;;21.10;10.40;;;;;;;;;;4991727;28;20488;-61
2024/03/23 05:42:52;;;;;;;17.45;9.70;;;;;;;;;;4974801;28;20026;-61
2024/03/23 05:45:18;;;;;;;18.40;9.15;;;;;;;;;;4954032;28;20432;-61
2024/03/23 05:47:43;;;;;;;18.42;9.63;;;;;;;;;;4977785;28;20072;-61
2024/03/23 05:50:10;;;;;;;17.25;9.40;;;;;;;;;;4976879;28;20103;-62
2024/03/23 05:52:36;;;;;;;15.88;8.65;;;;;;;;;;4985058;28;20030;-62
2024/03/23 05:55:01;;;;;;;17.02;9.02;;;;;;;;;;4981105;28;20031;-62
2024/03/23 05:57:27;;;;;;;21.23;9.20;;;;;;;;;;4966776;28;20027;-62
2024/03/23 05:59:52;;;;;;;17.95;9.93;;;;;;;;;;4974143;28;20014;-62
2024/03/23 06:02:17;;;;;;;19.58;9.70;;;;;;;;;;4954514;28;20045;-63
2024/03/23 06:04:44;;;;;;;22.30;10.68;;;;;;;;;;4970245;28;20083;-60
2024/03/23 06:07:13;;;;;;;20.58;10.25;;;;;;;;;;4971772;28;20097;-62
2024/03/23 06:09:38;;;;;;;22.27;11.43;;;;;;;;;;4969671;28;20084;-61
2024/03/23 06:12:04;;;;;;;20.58;10.70;;;;;;;;;;4961704;28;20027;-61
2024/03/23 06:14:29;;;;;;;26.67;13.30;;;;;;;;;;4951528;28;20034;-61
2024/03/23 06:16:54;;;;;;;20.75;11.60;;;;;;;;;;4970293;28;20088;-61
2024/03/23 06:19:19;;;;;;;24.93;12.30;;;;;;;;;;4977589;28;20027;-61
2024/03/23 06:21:44;;;;;;;20.17;10.17;;;;;;;;;;4970072;28;20022;-61
2024/03/23 06:24:10;;;;;;;23.58;11.27;;;;;;;;;;4951671;29;20506;-60
2024/03/23 06:26:36;;;;;;;27.45;12.18;;;;;;;;;;4970990;28;20015;-61
2024/03/23 06:29:01;;;;;;;28.25;13.63;;;;;;;;;;4975700;28;20033;-61
2024/03/23 06:31:26;;;;;;;30.70;13.77;;;;;;;;;;4975687;28;20072;-60
2024/03/23 06:33:51;;;;;;;27.83;13.55;;;;;;;;;;5000636;28;20107;-62
2024/03/23 06:36:16;;;;;;;29.63;13.53;;;;;;;;;;4984447;28;20054;-61
2024/03/23 06:38:42;;;;;;;33.05;15.00;;;;;;;;;;4978091;28;20031;-60
2024/03/23 06:41:07;;;;;;;40.00;17.60;;;;;;;;;;4981013;28;20029;-62
2024/03/23 06:43:32;;;;;;;32.92;15.25;;;;;;;;;;4975942;28;20048;-62
2024/03/23 06:45:59;;;;;;;34.67;15.52;;;;;;;;;;4973471;28;20042;-59
2024/03/23 06:48:24;;;;;;;31.77;14.48;;;;;;;;;;4980104;28;20055;-61
2024/03/23 06:50:49;;;;;;;33.40;14.97;;;;;;;;;;4979918;28;20127;-61
2024/03/23 06:53:15;;;;;;;30.33;14.67;;;;;;;;;;4977402;28;20082;-62
2024/03/23 06:55:40;;;;;;;28.52;13.55;;;;;;;;;;4968707;28;20120;-62
2024/03/23 06:58:06;;;;;;;29.85;14.18;;;;;;;;;;4971243;28;20051;-62
2024/03/23 07:00:32;;;;;;;29.47;13.80;;;;;;;;;;4974369;28;20526;-62
2024/03/23 07:02:57;;;;;;;27.88;13.25;;;;;;;;;;4973134;28;20437;-62
2024/03/23 07:05:22;;;;;;;28.37;14.23;;;;;;;;;;4965653;28;20084;-61
2024/03/23 07:07:47;;;;;;;26.65;12.90;;;;;;;;;;4960951;28;20110;-62
2024/03/23 07:10:12;;;;;;;29.45;14.15;;;;;;;;;;4963711;28;20046;-61
2024/03/23 07:12:38;;;;;;;27.63;13.07;;;;;;;;;;4967946;28;20084;-61
2024/03/23 07:15:04;;;;;;;29.70;13.73;;;;;;;;;;4968391;28;20149;-62
2024/03/23 07:17:29;;;;;;;27.75;12.85;;;;;;;;;;5040179;28;20108;-62
2024/03/23 07:19:54;;;;;;;22.73;11.60;;;;;;;;;;4969535;28;20023;-62
2024/03/23 07:22:20;;;;;;;26.70;12.10;;;;;;;;;;4972866;28;20038;-61
2024/03/23 07:24:45;;;;;;;30.03;13.37;;;;;;;;;;4970113;28;20031;-59
2024/03/23 07:27:10;;;;;;;25.47;11.60;;;;;;;;;;4969102;28;20023;-61
2024/03/23 07:29:36;;;;;;;32.35;14.73;;;;;;;;;;4968724;28;20034;-60
2024/03/23 07:32:01;;;;;;;32.28;14.30;;;;;;;;;;4968692;28;20015;-62
2024/03/23 07:34:26;;;;;;;25.95;12.13;;;;;;;;;;4963924;28;20035;-61
2024/03/23 07:36:51;;;;;;;22.85;10.82;;;;;;;;;;4971201;28;20050;-62
2024/03/23 07:39:17;;;;;;;21.93;11.20;;;;;;;;;;4974648;28;20404;-61
2024/03/23 07:41:44;;;;;;;26.67;12.73;;;;;;;;;;4979091;28;20135;-62
2024/03/23 07:44:09;;;;;;;23.25;11.48;;;;;;;;;;4977590;28;20508;-63
2024/03/23 07:46:34;;;;;;;23.35;11.93;;;;;;;;;;4960310;28;20112;-60
2024/03/23 07:48:59;;;;;;;23.00;11.43;;;;;;;;;;4978124;28;20039;-61
2024/03/23 07:51:25;;;;;;;23.43;11.27;;;;;;;;;;4975741;28;20027;-61
2024/03/23 07:53:50;;;;;;;23.03;11.47;;;;;;;;;;4987953;28;20142;-61
2024/03/23 07:56:16;;;;;;;25.38;12.55;;;;;;;;;;4976598;28;20069;-61
2024/03/23 07:58:41;;;;;;;22.52;11.35;;;;;;;;;;4966843;28;20046;-62
2024/03/23 08:01:08;;;;;;;23.08;11.25;;;;;;;;;;4966490;28;20025;-61
2024/03/23 08:03:33;;;;;;;24.00;11.82;;;;;;;;;;4963675;28;20022;-60
2024/03/23 08:06:06;;;;;;;23.50;11.93;;;;;;;;;;5000900;28;20022;-61
2024/03/23 08:08:31;;;;;;;25.70;11.48;;;;;;;;;;4973955;28;20026;-61
2024/03/23 08:10:56;;;;;;;21.48;10.45;;;;;;;;;;4962604;28;20035;-62
2024/03/23 08:13:21;;;;;;;21.88;11.75;;;;;;;;;;4961808;28;20491;-61
2024/03/23 08:15:46;;;;;;;21.73;11.25;;;;;;;;;;4965379;28;20022;-62
2024/03/23 08:18:12;;;;;;;20.13;10.27;;;;;;;;;;4961650;28;20024;-60
2024/03/23 08:20:37;;;;;;;20.02;10.65;;;;;;;;;;5006999;28;20048;-60
2024/03/23 08:23:02;;;;;;;21.55;10.55;;;;;;;;;;5014257;28;20424;-61
2024/03/23 08:25:30;;;;;;;16.67;9.53;;;;;;;;;;4975333;28;20031;-62
2024/03/23 08:27:55;;;;;;;18.58;9.95;;;;;;;;;;4972771;28;20015;-62
2024/03/23 08:30:20;;;;;;;18.55;9.95;;;;;;;;;;4971717;28;20094;-61
2024/03/23 08:32:46;;;;;;;20.77;10.88;;;;;;;;;;4972291;28;20475;-62
2024/03/23 08:35:11;;;;;;;18.33;10.10;;;;;;;;;;4972246;28;20031;-62
2024/03/23 08:37:36;;;;;;;20.13;11.43;;;;;;;;;;4970874;28;20889;-61
2024/03/23 08:40:02;;;;;;;19.17;10.83;;;;;;;;;;4983459;28;20097;-63
2024/03/23 08:42:27;;;;;;;19.05;10.30;;;;;;;;;;4991726;28;20467;-63
2024/03/23 08:44:52;;;;;;;18.98;10.32;;;;;;;;;;5033099;28;20025;-61
2024/03/23 08:47:17;;;;;;;18.83;10.55;;;;;;;;;;4954347;28;20039;-63
2024/03/23 08:49:43;;;;;;;18.67;10.60;;;;;;;;;;4965642;28;20023;-63
2024/03/23 08:52:08;;;;;;;19.88;10.52;;;;;;;;;;4972247;28;20032;-64
2024/03/23 08:54:34;;;;;;;19.63;10.75;;;;;;;;;;4972078;28;20086;-62
2024/03/23 08:56:59;;;;;;;18.45;10.40;;;;;;;;;;4981655;28;20386;-63
2024/03/23 08:59:24;;;;;;;17.93;10.97;;;;;;;;;;4991484;28;20026;-62
2024/03/23 09:01:49;;;;;;;21.75;11.27;;;;;;;;;;4991605;28;20058;-62
2024/03/23 09:04:14;;;;;;;20.38;10.52;;;;;;;;;;4986907;28;20037;-62
2024/03/23 09:06:41;;;;;;;17.73;10.80;;;;;;;;;;4952496;28;20397;-63
2024/03/23 09:09:07;;;;;;;21.17;10.68;;;;;;;;;;4966025;28;20018;-63
2024/03/23 09:11:33;;;;;;;17.10;10.18;;;;;;;;;;4983274;28;20544;-62
2024/03/23 09:13:59;;;;;;;16.50;9.70;;;;;;;;;;5030352;28;20060;-62
2024/03/23 09:16:27;;;;;;;15.82;9.38;;;;;;;;;;5076931;28;20028;-61
2024/03/23 09:18:52;;;;;;;17.80;9.75;;;;;;;;;;5079374;28;20047;-62
2024/03/23 09:21:17;;;;;;;18.93;10.83;;;;;;;;;;5075955;28;20024;-61
2024/03/23 09:23:45;;;;;;;18.00;9.80;;;;;;;;;;5014102;28;20033;-63
2024/03/23 09:26:11;;;;;;;18.10;10.70;;;;;;;;;;4986446;28;20022;-62
2024/03/23 09:28:37;;;;;;;18.17;11.23;;;;;;;;;;4992607;28;20486;-63
2024/03/23 09:31:02;;;;;;;;;;;;;;;;;;4984565;28;20018;-62
2024/03/23 09:33:29;;;;;;;19.27;10.63;;;;;;;;;;4980105;28;19906;-61
2024/03/23 09:35:56;;;;;;;;;;;;;;;;;;4974072;28;20030;-62
2024/03/23 09:38:21;;;;;;;16.00;8.27;;;;;;;;;;4983127;28;19992;-62
2024/03/23 09:40:49;;;;;;;14.10;8.87;;;;;;;;;;4985940;28;20066;-62
2024/03/23 09:43:17;;;;;;;13.77;7.78;;;;;;;;;;4976843;28;20468;-62
2024/03/23 09:45:44;;;;;;;17.42;8.30;;;;;;;;;;4976273;28;20022;-61
2024/03/23 09:48:12;;;;;;;15.13;8.52;;;;;;;;;;4979215;28;20034;-62
2024/03/23 09:50:40;;;;;;;18.58;10.90;;;;;;;;;;4978085;28;20083;-64
2024/03/23 09:53:09;;;;;;;17.13;10.43;;;;;;;;;;4978878;28;20326;-62
2024/03/23 09:55:35;;;;;;;20.17;10.60;;;;;;;;;;4982758;28;20026;-62
2024/03/23 09:58:00;;;;;;;20.27;10.63;;;;;;;;;;4992019;28;20015;-63
2024/03/23 10:00:26;;;;;;;19.13;8.15;;;;;;;;;;4990639;28;20044;-62
2024/03/23 10:02:51;;;;;;;18.42;6.05;;;;;;;;;;4981553;28;20030;-61
2024/03/23 10:05:21;;;;;;;14.25;4.40;;;;;;;;;;5001608;28;20456;-61
2024/03/23 10:07:46;;;;;;;12.60;3.83;;;;;;;;;;4982849;28;20026;-64
2024/03/23 10:10:12;;;;;;;7.78;2.20;;;;;;;;;;4980778;28;20021;-62
2024/03/23 10:12:43;;;;;;;8.25;2.30;;;;;;;;;;4978509;28;20035;-61
2024/03/23 10:15:15;;;;;;;8.02;2.00;;;;;;;;;;4979460;28;20134;-62
2024/03/23 10:17:40;;;;;;;4.93;1.33;;;;;;;;;;4966527;28;20096;-61
2024/03/23 10:20:09;;;;;;;1.97;0.60;;;;;;;;;;4963481;28;20511;-61
2024/03/23 10:22:37;;;;;;;4.20;0.80;;;;;;;;;;4951470;28;20022;-62
2024/03/23 10:25:08;;;;;;;2.30;0.70;;;;;;;;;;4956566;28;20088;-61
2024/03/23 10:27:35;;;;;;;3.15;0.80;;;;;;;;;;4979220;28;20093;-61
2024/03/23 10:30:07;;;;;;;1.70;0.47;;;;;;;;;;4979230;28;20042;-61
2024/03/23 10:32:33;;;;;;;1.08;0.40;;;;;;;;;;4989523;28;20054;-60
2024/03/23 10:35:13;;;;;;;1.47;0.40;;;;;;;;;;4989345;28;20065;-62
2024/03/23 10:37:38;;;;;;;0.68;0.20;;;;;;;;;;4989757;28;20042;-60
2024/03/23 10:40:04;;;;;;;2.37;0.70;;;;;;;;;;4989215;28;20042;-61
2024/03/23 10:42:29;;;;;;;1.42;0.40;;;;;;;;;;4963506;28;20078;-61
2024/03/23 10:44:56;;;;;;;1.90;0.70;;;;;;;;;;4978055;28;20480;-61
2024/03/23 10:47:21;;;;;;;1.95;0.60;;;;;;;;;;4970217;28;20415;-62
2024/03/23 10:49:48;;;;;;;3.23;0.70;;;;;;;;;;4970621;28;20038;-61
2024/03/23 10:52:13;;;;;;;3.10;0.80;;;;;;;;;;4970366;28;20491;-62
2024/03/23 10:54:41;;;;;;;2.40;0.80;;;;;;;;;;4969855;28;20038;-62
2024/03/23 10:57:08;;;;;;;2.35;0.70;;;;;;;;;;4970455;28;20043;-61
2024/03/23 10:59:33;;;;;;;4.88;1.13;;;;;;;;;;4968499;28;20027;-61
2024/03/23 11:01:59;;;;;;;2.85;0.90;;;;;;;;;;4981300;28;20026;-60
2024/03/23 11:04:31;;;;;;;2.83;0.90;;;;;;;;;;4988246;28;20097;-63
2024/03/23 11:06:57;;;;;;;1.15;0.60;;;;;;;;;;4968568;28;20026;-61
2024/03/23 11:09:43;;;;;;;2.80;0.68;;;;;;;;;;4970388;28;20608;-61
2024/03/23 11:12:23;;;;;;;1.90;0.50;;;;;;;;;;5052553;28;20024;-61
2024/03/23 11:14:53;;;;;;;2.50;0.63;;;;;;;;;;4981115;28;20043;-61
2024/03/23 11:17:19;;;;;;;3.58;1.17;;;;;;;;;;4974841;28;20531;-62
2024/03/23 11:19:44;;;;;;;5.68;2.60;;;;;;;;;;4974718;28;20023;-62
2024/03/23 11:22:09;;;;;;;5.37;1.70;;;;;;;;;;4970237;28;20046;-62
2024/03/23 11:24:34;;;;;;;9.13;2.10;;;;;;;;;;4969700;28;20517;-61
2024/03/23 11:27:01;;;;;;;3.83;0.95;;;;;;;;;;4969589;28;20018;-61
2024/03/23 11:29:26;;;;;;;2.38;0.80;;;;;;;;;;4969384;28;20019;-61
2024/03/23 11:31:52;;;;;;;0.77;0.30;;;;;;;;;;4969619;28;20053;-61
2024/03/23 11:34:18;;;;;;;1.38;0.40;;;;;;;;;;4970999;28;20117;-61
2024/03/23 11:36:43;;;;;;;4.38;1.15;;;;;;;;;;4976170;28;20479;-59
2024/03/23 11:39:16;;;;;;;2.88;0.90;;;;;;;;;;4989048;28;20049;-62
2024/03/23 11:41:51;;;;;;;1.60;0.40;;;;;;;;;;4988954;28;20026;-60
2024/03/23 11:44:17;;;;;;;0.57;0.20;;;;;;;;;;4989146;28;20023;-62
2024/03/23 11:46:42;;;;;;;1.75;0.40;;;;;;;;;;4988700;28;20427;-61
2024/03/23 11:49:19;;;;;;;1.40;0.30;;;;;;;;;;4985392;28;20475;-61
2024/03/23 11:51:44;;;;;;;0.85;0.43;;;;;;;;;;4978688;28;20034;-61
2024/03/23 11:54:09;;;;;;;2.30;0.63;;;;;;;;;;4981546;28;20031;-62
2024/03/23 11:56:34;;;;;;;4.20;0.83;;;;;;;;;;4972792;28;20058;-62
2024/03/23 11:58:59;;;;;;;4.65;0.82;;;;;;;;;;4974148;28;20419;-63
2024/03/23 12:01:25;;;;;;;2.40;0.60;;;;;;;;;;4972553;28;20088;-63
2024/03/23 12:03:50;;;;;;;1.70;0.50;;;;;;;;;;4971210;28;20028;-61
2024/03/23 12:06:19;;;;;;;3.27;0.80;;;;;;;;;;4974476;28;20114;-61
2024/03/23 12:08:44;;;;;;;1.67;0.60;;;;;;;;;;4982784;28;20030;-62
2024/03/23 12:11:11;;;;;;;1.20;0.43;;;;;;;;;;4974501;28;20159;-62
2024/03/23 12:13:37;;;;;;;;;;;;;;;;;;4975581;28;20117;-61
2024/03/23 12:16:11;;;;;;;2.38;0.50;;;;;;;;;;4984232;28;19930;-63
2024/03/23 12:18:37;;;;;;;1.45;0.60;;;;;;;;;;4992407;28;20029;-62
2024/03/23 12:21:03;;;;;;;4.25;0.90;;;;;;;;;;4992303;28;20110;-61
2024/03/23 12:23:28;;;;;;;2.55;0.80;;;;;;;;;;4991353;28;20444;-62
2024/03/23 12:25:53;;;;;;;1.75;0.70;;;;;;;;;;4987541;28;20035;-61
2024/03/23 12:28:18;;;;;;;2.10;0.80;;;;;;;;;;4980425;28;20025;-62
2024/03/23 12:30:43;;;;;;;2.03;0.70;;;;;;;;;;4990230;28;20025;-61
2024/03/23 12:33:09;;;;;;;3.93;1.10;;;;;;;;;;4991965;28;20019;-60
2024/03/23 12:35:34;;;;;;;5.47;1.60;;;;;;;;;;4971081;28;20109;-62
2024/03/23 12:37:59;;;;;;;2.63;0.80;;;;;;;;;;4971267;28;20022;-62
2024/03/23 12:40:24;;;;;;;3.00;0.70;;;;;;;;;;4972593;28;20026;-61
2024/03/23 12:42:50;;;;;;;2.40;0.70;;;;;;;;;;4985511;28;20050;-61
2024/03/23 12:45:15;;;;;;;3.13;1.07;;;;;;;;;;4993156;28;20453;-61
2024/03/23 12:47:40;;;;;;;3.38;0.90;;;;;;;;;;4971199;28;20057;-60
2024/03/23 12:50:07;;;;;;;2.80;0.93;;;;;;;;;;4994415;28;20109;-61
2024/03/23 12:52:32;;;;;;;;;;;;;;;;;;4983117;28;20030;-61
2024/03/23 12:54:57;;;;;;;3.10;1.10;;;;;;;;;;4974473;28;19918;-61
2024/03/23 12:57:23;;;;;;;2.73;0.90;;;;;;;;;;4966147;28;20022;-61
2024/03/23 12:59:50;;;;;;;3.25;1.30;;;;;;;;;;4981404;28;20041;-61
2024/03/23 13:02:16;;;;;;;4.05;1.85;;;;;;;;;;4961660;28;20113;-62
2024/03/23 13:04:41;;;;;;;3.70;1.52;;;;;;;;;;4976188;28;20161;-63
2024/03/23 13:07:07;;;;;;;3.58;1.30;;;;;;;;;;4969395;28;20022;-62
2024/03/23 13:09:32;;;;;;;3.67;1.75;;;;;;;;;;4992982;28;20031;-61
2024/03/23 13:11:57;;;;;;;3.50;1.60;;;;;;;;;;4976032;28;20015;-62
2024/03/23 13:14:23;;;;;;;4.00;1.55;;;;;;;;;;4982311;28;20034;-64
2024/03/23 13:16:48;;;;;;;3.50;1.70;;;;;;;;;;4986967;28;20448;-61
2024/03/23 13:19:13;;;;;;;3.17;1.40;;;;;;;;;;4968965;28;20022;-61
2024/03/23 13:21:38;;;;;;;3.70;1.40;;;;;;;;;;4967003;28;20362;-61
2024/03/23 13:24:04;;;;;;;7.63;3.10;;;;;;;;;;4968865;28;20941;-63
2024/03/23 13:26:29;;;;;;;4.82;2.20;;;;;;;;;;4965335;28;20045;-61
2024/03/23 13:28:54;;;;;;;4.23;1.80;;;;;;;;;;4981502;28;20026;-62
2024/03/23 13:31:19;;;;;;;3.50;1.60;;;;;;;;;;4974124;28;20081;-61
2024/03/23 13:33:44;;;;;;;5.40;1.73;;;;;;;;;;4979349;28;20035;-63
2024/03/23 13:36:10;;;;;;;4.53;2.10;;;;;;;;;;4981086;28;20030;-62
2024/03/23 13:38:35;;;;;;;4.23;1.57;;;;;;;;;;4977586;28;20038;-61
2024/03/23 13:41:01;;;;;;;3.30;1.50;;;;;;;;;;4974627;28;20015;-61
2024/03/23 13:43:27;;;;;;;4.82;1.30;;;;;;;;;;4971840;28;20019;-60
2024/03/23 13:45:53;;;;;;;3.78;1.40;;;;;;;;;;4962228;28;20020;-62
2024/03/23 13:48:23;;;;;;;2.95;1.25;;;;;;;;;;4968882;28;20031;-62
2024/03/23 13:51:02;;;;;;;4.32;1.70;;;;;;;;;;4963058;28;20032;-62
2024/03/23 13:53:28;;;;;;;4.32;1.50;;;;;;;;;;4952995;29;20031;-61
2024/03/23 13:55:53;;;;;;;4.68;1.42;;;;;;;;;;4983098;28;20046;-62
2024/03/23 13:58:19;;;;;;;6.50;2.50;;;;;;;;;;4967358;28;20015;-61
2024/03/23 14:00:44;;;;;;;4.73;1.30;;;;;;;;;;4968502;28;20577;-62
2024/03/23 14:03:09;;;;;;;4.50;1.30;;;;;;;;;;4968001;28;20054;-61
2024/03/23 14:05:35;;;;;;;6.32;1.27;;;;;;;;;;4960018;28;20106;-60
2024/03/23 14:08:00;;;;;;;5.80;1.63;;;;;;;;;;4978044;28;20586;-61
2024/03/23 14:10:25;;;;;;;5.93;1.20;;;;;;;;;;4963092;28;20030;-62
2024/03/23 14:12:50;;;;;;;6.53;1.20;;;;;;;;;;4973795;28;20027;-62
2024/03/23 14:15:15;;;;;;;3.95;1.10;;;;;;;;;;4967185;28;20650;-60
2024/03/23 14:17:41;;;;;;;4.60;1.08;;;;;;;;;;5000851;28;20017;-61
2024/03/23 14:20:09;;;;;;;5.70;1.10;;;;;;;;;;4981988;28;20133;-61
2024/03/23 14:22:34;;;;;;;3.15;0.88;;;;;;;;;;4967985;28;20027;-62